Weather observations for the past three days for
Carrizo Springs Dimmit County Airport
Metric (Imperial)
Date Time (cdt) Wind (kph) Vis. (km) Weather Sky Cond. Temperature (ºC) Relative Humidity Wind Chill (°C) Heat Index (°C) Pressure Precipitation (cm)
Air Dwpt 6 hour altimeter (cm) sea level (mb) 1 hr 3 hr 6 hr
Max. Min.
25 00:15 SE 19 16.09 Fair CLR 31 24 66% 37 75.46 0.0
24 23:55 SE 19 G 28 16.09 Fair CLR 32 24 63% 38 75.46 0.0
24 23:35 E 13 16.09 Fair CLR 32 25 67% 39 75.46 0.0
24 23:15 E 17 16.09 Fair CLR 32 25 67% 39 75.44 0.0
24 22:55 E 11 16.09 Fair CLR 32 24 63% 38 75.41 0.0
24 22:35 E 9 16.09 Fair CLR 32 23 59% 37 75.39 0.0
24 22:15 E 7 16.09 Fair CLR 32 22 55% 36 75.36 0.0
24 21:55 NE 6 16.09 Fair CLR 32 22 55% 36 75.34 0.0
24 21:35 NE 6 16.09 Fair CLR 33 22 52% 37 75.31 0.0
24 21:15 NE 7 16.09 Fair CLR 33 22 52% 37 75.31 0.0
24 20:55 NE 7 16.09 Fair CLR 34 22 50% 38 75.29 0.0
24 20:35 NE 7 16.09 Fair CLR 35 22 47% 39 75.29 0.0
24 20:15 N 9 16.09 Fair CLR 36 22 44% 41 75.29 0.0
24 19:55 N 7 16.09 Fair CLR 37 22 42% 42 75.26 0.0
24 19:35 N 9 16.09 Fair CLR 37 22 42% 42 75.26 0.0
24 19:15 N 9 16.09 Fair CLR 38 22 40% 43 75.26 0.0
24 18:55 N 15 16.09 Fair CLR 38 22 40% 43 75.23 0.0
24 18:35 N 11 16.09 Fair CLR 40 21 33% 45 75.23 0.0
24 18:15 N 7 16.09 Fair CLR 40 21 33% 45 75.23 0.0
24 17:55 NE 6 16.09 Fair CLR 40 22 35% 46 75.26 0.0
24 17:35 N 11 16.09 Fair CLR 40 22 35% 46 75.26 0.0
24 17:15 NE 7 16.09 Fair CLR 40 22 35% 46 75.29 0.0
24 16:55 NE 7 16.09 Fair CLR 40 22 35% 46 75.31 0.0
24 16:35 N 6 16.09 Fair CLR 40 21 33% 45 75.34 0.0
24 16:15 N 6 16.09 Fair CLR 40 22 35% 46 75.34 0.0
24 15:55 SE 6 16.09 Fair CLR 39 22 37% 44 75.36 0.0
24 15:35 S 6 16.09 Fair CLR 38 22 40% 43 75.39 0.0
24 15:15 Calm 16.09 Fair CLR 37 22 42% 42 75.41 0.0
24 14:55 NE 6 11.27 Fair CLR 38 23 42% 44 75.46 0.0
24 14:35 Calm 16.09 Fair CLR 36 23 47% 42 75.46 0.0
24 14:15 NE 9 11.27 Partly Cloudy SCT034 37 23 44% 43 75.49 0.0
24 13:55 Calm 11.27 Partly Cloudy SCT036 36 24 50% 43 75.51 0.0
24 13:35 W 6 11.27 Fair CLR 35 24 53% 42 75.54 0.0
24 13:15 NW 7 11.27 Mostly Cloudy SCT026 BKN035 34 25 59% 42 75.57 0.0
24 12:55 Calm 11.27 Overcast BKN026 OVC035 33 24 59% 39 75.57 0.0
24 12:35 NE 9 11.27 Overcast SCT026 OVC033 33 25 63% 41 75.59 0.0
24 12:15 NE 6 11.27 Overcast BKN026 OVC032 32 25 67% 39 75.59 0.0
24 11:55 N 6 11.27 Overcast BKN023 OVC029 31 24 66% 37 75.59 0.0
24 11:35 NE 6 11.27 Overcast OVC021 31 24 66% 37 75.59 0.0
24 11:15 Calm 11.27 Overcast BKN021 OVC026 30 24 70% 35 75.57 0.0
24 10:55 Calm 11.27 Overcast BKN019 OVC025 30 24 70% 35 75.57 0.0
24 10:35 Calm 11.27 Overcast OVC019 29 25 79% 35 75.57 0.0
24 10:15 Calm 11.27 Overcast OVC017 28 25 84% 33 75.57 0.0
24 09:55 SE 6 11.27 Overcast OVC015 27 25 89% 31 75.57 0.0
24 09:35 E 7 11.27 Overcast OVC013 27 25 89% 31 75.57 0.0
24 09:15 SE 7 11.27 Overcast OVC013 27 25 89% 31 75.57 0.0
24 08:55 Calm 11.27 Overcast OVC013 27 26 94% 31 75.54 0.0
24 08:35 E 7 11.27 Overcast OVC013 26 26 100% 28 75.51 0.0
24 08:15 SE 9 11.27 Overcast OVC013 26 26 100% 28 75.49 0.0
24 07:55 SE 11 11.27 Overcast OVC015 26 26 100% 28 75.46 0.0
24 07:35 SE 9 11.27 Overcast OVC015 26 26 100% 28 75.46 0.0
24 07:15 SE 9 11.27 Overcast OVC015 26 26 100% 28 75.46 0.0
24 06:55 E 9 16.09 Overcast OVC015 26 26 100% 28 75.46 0.0
24 06:35 SE 9 16.09 Overcast OVC017 26 26 100% 28 75.46 0.0
24 06:15 SE 7 16.09 Overcast OVC017 26 26 100% 28 75.44 0.0
24 05:55 E 7 16.09 Overcast OVC017 26 26 100% 28 75.41 0.0
24 05:35 E 9 16.09 Overcast OVC019 26 26 100% 28 75.41 0.0
24 05:15 E 7 16.09 Overcast OVC019 26 26 100% 28 75.41 0.0
24 04:55 E 7 16.09 Overcast OVC019 26 25 94% 28 75.41 0.0
24 04:35 E 7 16.09 Overcast OVC019 26 25 94% 28 75.41 0.0
24 04:15 SE 6 16.09 Mostly Cloudy BKN019 26 25 94% 28 75.44 0.0
24 03:55 SE 11 16.09 Partly Cloudy SCT019 26 25 94% 28 75.41 0.0
24 03:35 SE 13 16.09 Fair CLR 26 24 89% 28 75.44 0.0
24 03:15 SE 11 16.09 Fair CLR 27 24 84% 30 75.44 0.0
24 02:55 SE 9 16.09 Fair CLR 27 23 79% 30 75.44 0.0
24 02:35 SE 9 16.09 Fair CLR 27 23 79% 30 75.44 0.0
24 02:15 SE 19 G 31 16.09 Fair CLR 27 23 79% 30 75.44 0.0
24 01:55 SE 22 G 30 16.09 Fair CLR 27 23 79% 30 75.44 0.0
24 01:35 SE 9 16.09 Fair CLR 28 23 74% 31 75.44 0.0
24 01:15 SE 17 16.09 Fair CLR 28 23 74% 31 75.44 0.0
24 00:55 SE 20 G 28 16.09 Fair CLR 28 23 74% 31 75.44 0.0
24 00:35 SE 19 G 30 16.09 Fair CLR 29 23 70% 33 75.44 0.0
24 00:15 SE 19 G 28 16.09 Fair CLR 29 23 70% 33 75.44 0.0
23 23:55 SE 20 G 31 16.09 Fair CLR 30 23 66% 34 75.44 0.0
23 23:35 E 17 G 28 16.09 Fair CLR 30 23 66% 34 75.46 0.0
23 23:15 SE 19 G 31 16.09 Fair CLR 31 23 62% 35 75.44 0.0
23 22:55 SE 22 G 28 16.09 Fair CLR 31 23 62% 35 75.41 0.0
23 22:35 SE 22 G 31 16.09 Fair CLR 31 23 62% 35 75.39 0.0
23 22:15 SE 24 G 31 16.09 Fair CLR 32 23 59% 37 75.36 0.0
23 21:55 E 20 G 30 16.09 Fair CLR 32 23 59% 37 75.34 0.0
23 21:35 E 20 G 30 16.09 Fair CLR 33 22 52% 37 75.31 0.0
23 21:15 E 17 G 31 16.09 Fair CLR 35 22 47% 39 75.29 0.0
23 20:55 SE 19 16.09 Fair CLR 36 20 39% 39 75.23 0.0
23 20:35 SE 17 G 28 16.09 Fair CLR 36 20 39% 39 75.23 0.0
23 20:15 SE 19 G 33 16.09 Fair CLR 37 20 37% 40 75.21 0.0
23 19:55 SE 20 G 30 16.09 Fair CLR 38 19 33% 40 75.18 0.0
23 19:35 SE 17 16.09 Fair CLR 39 18 29% 41 75.16 0.0
23 19:15 SE 17 16.09 Fair CLR 40 19 29% 43 75.16 0.0
23 18:55 SE 13 16.09 Fair CLR 40 18 28% 42 75.16 0.0
23 18:35 SE 13 16.09 Fair CLR 40 18 28% 42 75.18 0.0
23 18:15 SE 19 16.09 Fair CLR 41 18 26% 43 75.18 0.0
23 17:55 SE 11 16.09 Fair CLR 41 18 26% 43 75.18 0.0
23 17:35 E 11 16.09 Fair CLR 41 19 28% 44 75.21 0.0
23 17:15 SE 7 G 26 16.09 Fair CLR 41 19 28% 44 75.23 0.0
23 16:55 SE 6 16.09 Fair CLR 41 20 30% 45 75.26 0.0
23 16:35 W 6 16.09 Fair CLR 41 20 30% 45 75.29 0.0
23 16:15 S 17 16.09 Partly Cloudy SCT070 41 20 30% 45 75.31 0.0
23 15:55 E 9 16.09 Partly Cloudy SCT070 39 21 35% 43 75.34 0.0
23 15:35 SE 9 16.09 Partly Cloudy SCT070 SCT080 39 21 35% 43 75.36 0.0
23 15:15 S 9 16.09 Partly Cloudy SCT060 39 21 35% 43 75.36 0.0
23 14:55 S 6 16.09 Partly Cloudy SCT060 38 21 37% 42 75.39 0.0
23 14:35 S 7 16.09 Partly Cloudy SCT060 39 22 37% 44 75.44 0.0
23 14:15 SW 9 11.27 Partly Cloudy SCT060 39 22 37% 44 75.46 0.0
23 13:55 SE 11 16.09 Mostly Cloudy BKN050 37 22 42% 42 75.49 0.0
23 13:35 S 13 16.09 Partly Cloudy SCT050 38 22 40% 43 75.51 0.0
23 13:15 SW 9 11.27 Partly Cloudy SCT050 37 22 42% 42 75.54 0.0
23 12:55 SW 15 16.09 Mostly Cloudy BKN048 36 22 44% 41 75.54 0.0
23 12:35 S 11 G 26 11.27 Overcast BKN048 OVC055 36 22 44% 41 75.57 0.0
23 12:15 S 9 11.27 Overcast OVC046 35 22 47% 39 75.59 0.0
23 11:55 S 6 16.09 Mostly Cloudy BKN044 BKN050 34 22 50% 38 75.59 0.0
23 11:35 S 15 16.09 Overcast BKN039 OVC046 33 22 52% 37 75.59 0.0
23 11:15 S 13 G 28 11.27 Overcast BKN039 OVC046 33 22 52% 37 75.62 0.0
23 10:55 S 15 11.27 Mostly Cloudy BKN035 32 23 59% 37 75.59 0.0
23 10:35 S 15 11.27 Mostly Cloudy BKN031 BKN037 32 23 59% 37 75.59 0.0
23 10:15 S 13 11.27 Partly Cloudy SCT027 31 23 62% 35 75.59 0.0
23 09:55 S 15 G 26 11.27 Mostly Cloudy BKN025 30 23 66% 34 75.59 0.0
23 09:35 S 17 11.27 Mostly Cloudy BKN021 30 23 66% 34 75.59 0.0
23 09:15 SE 19 G 30 11.27 Mostly Cloudy BKN019 BKN026 28 23 74% 31 75.59 0.0
23 08:55 SE 20 G 28 11.27 Mostly Cloudy BKN019 28 24 79% 32 75.57 0.0
23 08:35 SE 19 11.27 Overcast OVC017 27 24 84% 30 75.54 0.0
23 08:15 SE 15 G 26 11.27 Overcast OVC017 27 25 89% 31 75.57 0.0
23 07:55 SE 17 11.27 Overcast OVC015 26 25 94% 28 75.54 0.0
23 07:35 SE 13 11.27 Overcast OVC015 26 26 100% 28 75.54 0.0
23 07:15 SE 13 11.27 Overcast OVC015 26 26 100% 28 75.51 0.0
23 06:55 SE 9 11.27 Overcast OVC015 26 26 100% 28 75.51 0.0
23 06:35 E 9 16.09 Overcast OVC013 26 26 100% 28 75.51 0.0
23 06:15 E 11 16.09 Overcast OVC013 26 26 100% 28 75.51 0.0
23 05:55 SE 17 16.09 Overcast OVC013 26 26 100% 28 75.51 0.0
23 05:35 SE 19 16.09 Overcast OVC013 26 26 100% 28 75.49 0.0
23 05:15 SE 17 G 30 16.09 Overcast OVC013 26 26 100% 28 75.46 0.0
23 04:55 E 15 G 31 16.09 Overcast OVC013 26 26 100% 28 75.49 0.0
23 04:35 SE 17 G 30 16.09 Overcast OVC013 26 26 100% 28 75.49 0.0
23 04:15 E 15 G 30 16.09 Overcast OVC013 26 26 100% 28 75.49 0.0
23 03:55 E 19 G 28 16.09 Mostly Cloudy BKN013 26 25 94% 28 75.49 0.0
23 03:35 SE 20 G 33 16.09 Partly Cloudy SCT015 26 25 94% 28 75.49 0.0
23 03:15 SE 20 G 30 16.09 Fair CLR 26 25 94% 28 75.51 0.0
23 02:55 E 20 G 30 16.09 Fair CLR 27 25 89% 31 75.49 0.0
23 02:35 E 13 G 28 11.27 Fair CLR 27 25 89% 31 75.49 0.0
23 02:15 E 17 G 28 11.27 Fair CLR 27 25 89% 31 75.46 0.0
23 01:55 E 17 16.09 Fair CLR 28 25 84% 33 75.46 0.0
23 01:35 E 17 16.09 Fair CLR 28 25 84% 33 75.49 0.0
23 01:15 E 17 16.09 Fair CLR 28 25 84% 33 75.49 0.0
23 00:55 E 17 16.09 Fair CLR 29 25 79% 35 75.51 0.0
23 00:35 E 15 G 28 16.09 Fair CLR 29 25 79% 35 75.51 0.0
23 00:15 E 19 G 28 16.09 Fair CLR 30 25 75% 36 75.51 0.0
22 23:55 SE 17 G 26 16.09 Fair CLR 30 25 75% 36 75.51 0.0
22 23:35 SE 19 G 33 16.09 Fair CLR 30 25 75% 36 75.51 0.0
22 23:15 SE 20 G 33 16.09 Fair CLR 31 25 70% 38 75.46 0.0
22 22:55 SE 15 G 31 16.09 Fair CLR 31 24 66% 37 75.41 0.0
22 22:35 E 11 16.09 Fair CLR 32 23 59% 37 75.36 0.0
22 22:15 E 20 G 26 16.09 Fair CLR 34 22 50% 38 75.36 0.0
22 21:55 E 13 16.09 Fair CLR 35 18 36% 36 75.34 0.0
22 21:35 SE 13 G 33 16.09 Fair CLR 35 18 36% 36 75.31 0.0
22 21:15 SE 17 G 33 16.09 Fair CLR 36 18 34% 37 75.31 0.0
22 20:55 SE 20 G 33 16.09 Fair CLR 36 18 34% 37 75.29 0.0
22 20:35 SE 19 16.09 Fair CLR 37 18 33% 39 75.29 0.0
22 20:15 SE 15 16.09 Fair CLR 37 18 33% 39 75.26 0.0
22 19:55 SE 13 16.09 Fair CLR 38 18 31% 40 75.23 0.0
22 19:35 SE 13 16.09 Fair CLR 38 18 31% 40 75.21 0.0
22 19:15 SE 9 16.09 Fair CLR 40 18 28% 42 75.21 0.0
22 18:35 SE 15 16.09 Fair CLR 40 18 28% 42 75.18 0.0
22 18:15 SE 20 G 26 16.09 Fair CLR 40 18 28% 42 75.21 0.0
22 17:55 SE 22 G 31 16.09 Fair CLR 41 18 26% 43 75.18 0.0
22 17:35 SE 13 16.09 Fair CLR 39 19 31% 42 75.23 0.0
22 17:15 SE 9 16.09 Fair CLR 38 19 33% 40 75.29 0.0
22 16:55 SE 11 16.09 Fair CLR 38 20 35% 41 75.31 0.0
22 16:35 SE 9 16.09 Fair CLR 38 20 35% 41 75.34 0.0
22 16:15 SE 15 16.09 Fair CLR 40 21 33% 45 75.34 0.0
22 15:55 S 17 G 26 16.09 Fair CLR 39 21 35% 43 75.36 0.0
22 15:35 SE 6 16.09 Fair CLR 38 22 40% 43 75.36 0.0
22 15:15 SE 11 G 28 16.09 Fair CLR 38 22 40% 43 75.46 0.0
22 14:55 E 9 16.09 Partly Cloudy SCT045 37 23 44% 43 75.46 0.0
22 14:35 E 11 16.09 Mostly Cloudy BKN043 36 23 47% 42 75.51 0.0
22 14:15 SE 9 11.27 Mostly Cloudy BKN043 35 23 50% 41 75.54 0.0
22 13:55 Calm 11.27 Mostly Cloudy SCT035 BKN041 35 24 53% 42 75.57 0.0
22 13:35 E 7 11.27 Overcast OVC035 33 24 59% 39 75.62 0.0
22 13:15 S 7 11.27 Overcast SCT028 OVC037 33 23 56% 38 75.62 0.0
22 12:55 E 13 11.27 Overcast SCT026 OVC035 32 24 63% 38 75.64 0.0
22 12:35 SE 13 11.27 Overcast SCT024 OVC033 31 24 66% 37 75.64 0.0
22 12:15 SE 11 11.27 Overcast SCT021 BKN028 OVC035 31 24 66% 37 75.67 0.0
22 11:55 SE 11 11.27 Overcast BKN021 OVC028 30 24 70% 35 75.67 0.0
22 11:35 E 7 8.05 Overcast with Haze BKN018 OVC025 29 25 79% 35 75.67 0.0
22 11:15 E 11 11.27 Overcast OVC018 29 25 79% 35 75.67 0.0
22 10:55 E 7 8.05 Overcast with Haze BKN018 OVC023 28 25 84% 33 75.67 0.0
22 10:35 E 11 8.05 Overcast with Haze SCT018 OVC025 28 25 84% 33 75.67 0.0
22 10:15 E 11 8.05 Overcast with Haze OVC025 28 25 84% 33 75.64 0.0
22 09:55 E 9 8.05 Fog/Mist BKN025 OVC029 28 26 89% 34 75.64 0.0
22 09:35 E 11 8.05 Fog/Mist OVC023 27 26 94% 31 75.67 0.0
22 09:15 SE 7 8.05 Fog/Mist SCT014 OVC023 27 26 94% 31 75.67 0.0
22 08:55 Calm 8.05 Fog/Mist SCT016 OVC023 27 27 100% 32 75.67 0.0
22 08:35 SE 9 6.44 Fog/Mist BKN013 BKN021 OVC025 26 26 100% 28 75.67 0.0
22 08:15 SE 7 6.44 Fog/Mist OVC013 26 26 100% 28 75.64 0.0
22 07:55 SE 7 6.44 Fog/Mist OVC011 26 26 100% 28 75.64 0.0
22 07:35 E 6 6.44 Fog/Mist OVC011 26 26 100% 28 75.64 0.0
22 07:15 E 6 8.05 Fog/Mist OVC011 26 26 100% 28 75.62 0.0
22 06:55 E 7 8.05 Fog/Mist OVC011 26 26 100% 28 75.59 0.0
22 06:35 E 7 8.05 Fog/Mist OVC011 26 26 100% 28 75.59 0.0
22 06:15 E 6 8.05 Fog/Mist OVC013 26 26 100% 28 75.57 0.0
22 05:55 E 7 8.05 Fog/Mist BKN013 OVC018 26 26 100% 28 75.54 0.0
22 05:35 E 9 8.05 Fog/Mist SCT017 26 26 100% 28 75.51 0.0
22 05:15 SE 11 8.05 Fog/Mist CLR 26 26 100% 28 75.51 0.0
22 04:55 SE 15 11.27 Fair CLR 26 26 100% 28 75.54 0.0
22 04:35 SE 13 11.27 Fair CLR 26 26 100% 28 75.51 0.0
22 04:15 SE 13 11.27 Fair CLR 26 25 94% 28 75.51 0.0
22 03:55 SE 13 G 26 11.27 Partly Cloudy SCT015 26 25 94% 28 75.51 0.0
22 03:35 SE 19 G 28 11.27 Partly Cloudy SCT015 27 25 89% 31 75.57 0.0
22 03:15 SE 17 G 26 11.27 Mostly Cloudy BKN015 27 25 89% 31 75.57 0.0
22 02:55 SE 17 G 33 11.27 Overcast OVC015 27 25 89% 31 75.59 0.0
22 02:35 SE 19 G 33 11.27 Mostly Cloudy BKN015 27 25 89% 31 75.59 0.0
22 02:15 SE 22 G 28 11.27 Partly Cloudy SCT017 27 25 89% 31 75.62 0.0
22 01:55 SE 20 G 30 11.27 Fair CLR 27 24 84% 30 75.62 0.0
22 01:35 SE 20 G 30 11.27 Fair CLR 28 24 79% 32 75.57 0.0
22 01:15 SE 15 G 30 11.27 Fair CLR 28 25 84% 33 75.59 0.0
22 00:55 SE 22 G 30 11.27 Partly Cloudy SCT019 28 25 84% 33 75.62 0.0
22 00:35 SE 19 G 28 11.27 Partly Cloudy SCT021 28 24 79% 32 75.62 0.0
Date Time (cdt) Wind (kph) Vis. (km) Weather Sky Cond. Air Dwpt Max. Min. Relative Humidity Wind Chill (°C) Heat Index (°C) altimeter (cm) sea level (mb) 1 hr 3 hr 6 hr
6 hour
Temperature (ºC) Pressure Precipitation (cm)